Thursday, May 26, 2016
20:24 UTC
  |  Log In   |  Register Free
Airport Search:

Farmington Regional Airport
(KFAM)

Farmington Regional Airport Diagram
No Airport Diagram Available

FAA data valid effective Mar 31 2016 - May 26 2016 (unless otherwise noted).

 
 
 
 
 
 
 
 
 
 
 
 
 
 
Current Aviation Weather for KFAM

Weather Summary


The most recent METAR observation for FAM was updated at: 12:55 UTC
METAR for KFAM is not available. Closest METAR is for
KFAM  (most recent observation was updatred at 26:19 UTC)
261956Z AUTO VRB04KT 10SM CLR 19/18 A2996 RMK AO2 LTG DSNT E-S SLP174 T01940183 PNO $

TAF for KFAM is not available.
GlobalAir.com is loading additional information.
 Current Weather at FAM
66.0 F° (18.9 C°)

South winds at 10.4 mph
Pressure:
29.95 in
Humidity:
96%
Wind:
South at 10.4 mph
Dew Point:
64.9 F° (18.3 C°)
Visibility:
9.00 mi
FAM NOAA Radar




Find All Airport Services Find A Hotel Find A Rental Car Find A Golf Course Find A Restaurant $100 Hamburger



Airport Weather Forecast for KFAM

Translated METAR for KFAM (1956 UTC)
METAR:
KFAM 261956Z AUTO VRB04KT 10SM CLR 19/18 A2996 RMK AO2 LTG DSNT E-S SLP174 T01940183 PNO $
Conditions at:
KFAM (Farmington Rgnl, MO) observed 1956 UTC 26 May 2016
Temperature:
19°C (66.2°F)
Dewpoint:
18°C (64.4°F) [RH = 93.9]
Pressure:
29.96 inches Hg (1014.6 mb)
pressure at sea level is 174 in Hg
Winds:
variable wind direction at 4.6 mph (4 knots: 2.1 m/s)
Visibility:
10 mile(s)
Ceiling:
at least 12,000 feet AGL
Clouds:
Clear below 12,000 feet AGL
Remarks:
site is un-manned
SOME DATA ABOVE MAY BE INACCURATE!!!
"$" is an indication the sensor requires maintenance
site is automated and HAS a precipitation sensor

Translated TAF for TAF for FAM is not available. Refer to local area forecast.
FBO's on the Field
FBO Company Facility Photos Services Transportation Aviation Fuel Prices: Prices include tax
Catering Weather Repair Courtesy Rental Type 100LL JetA JetA+ MOGAS 8087
 
Farmington Regional Airport

This FBO has not yet been rated
FS:Shell
Last Updated: Apr-20
Login to update fuel prices
SS:
Contact Farmington Regional AirportMore FBO Information
 
Add another FBO Facility Photos Catering Weather Repair Courtesy Rental Type 100LL JetA JetA+ MOGAS 8087
Services Transportation Aviation Fuel Prices: Prices include tax


model-print
model-print
model-print
model-print